Flight Track Log - Related Links

Times and Time Zones

All times are in EDT time to prevent confusion due to time zone crossing. See the SWA540 flight status page for this flight to view local times or setup timezone preferences in your user account.

Time Position Orientation Groundspeed Altitude Reporting Facility
EDT Latitude Longitude Course Direction KTS MPH feet Rate Location/Type
Sun 07:19:41 PM 39.1333 -76.7167 180° South 233 268 4,300  Level Potomac TRACON
Sun 07:20:47 PM 39.0667 -76.6333 136° Southeast 288 331 7,500 3,050 Climbing Potomac TRACON
Sun 07:21:41 PM 39.0167 -76.5667 134° Southeast 309 356 10,400 2,750 Climbing Potomac TRACON
Sun 07:22:47 PM 38.9333 -76.5167 155° Southeast 356 410 13,000 1,510 Climbing Potomac TRACON
Sun 07:24:16 PM 38.8011 -76.5667 196° South 370 426 14,300 1,662 Climbing Washington Center
Sun 07:25:15 PM 38.7131 -76.6267 208° Southwest 365 420 17,100 2,350 Climbing Washington Center
Sun 07:26:16 PM 38.6206 -76.6864 207° Southwest 365 420 19,000 1,835 Climbing Washington Center
Sun 07:27:16 PM 38.5078 -76.7272 196° South 371 427 20,800 1,983 Climbing Washington Center
Sun 07:28:17 PM 38.3933 -76.7069 172° South 385 443 23,000 1,240 Climbing Washington Center
Sun 07:29:17 PM 38.2892 -76.6869 171° South 402 463 23,300 1,210 Climbing Washington Center
Sun 07:30:16 PM 38.1725 -76.6719 174° South 417 480 25,400 1,450 Climbing Washington Center
Sun 07:31:17 PM 38.0517 -76.6569 174° South 429 494 26,200 934 Climbing Washington Center
Sun 07:32:18 PM 37.9244 -76.6500 178° South 441 507 27,300 1,160 Climbing Washington Center
Sun 07:33:16 PM 37.7950 -76.6667 186° South 455 524 28,500 1,424 Climbing Washington Center
Sun 07:34:16 PM 37.6614 -76.6831 186° South 473 544 30,100 1,736 Climbing Washington Center
Sun 07:35:17 PM 37.5278 -76.6994 186° South 484 557 32,000 1,815 Climbing Washington Center
Sun 07:36:15 PM 37.3983 -76.7292 190° South 484 557 33,700 1,059 Climbing Washington Center
Sun 07:37:16 PM 37.2581 -76.7844 197° South 478 550 34,100 836 Climbing Washington Center
Sun 07:38:17 PM 37.1322 -76.8397 199° South 478 550 35,400 1,339 Climbing Washington Center
Sun 07:39:17 PM 37.0106 -76.8950 200° South 478 550 36,800 1,373 Climbing Washington Center
Sun 07:40:15 PM 36.8850 -76.9447 198° South 478 550 38,100 655 Climbing Washington Center
Sun 07:41:16 PM 36.7592 -76.9969 198° South 473 544 38,100  Level Washington Center
Sun 07:42:17 PM 36.6375 -77.0467 198° South 473 544 38,100  Level Washington Center
Sun 07:43:18 PM 36.5139 -77.0986 199° South 473 544 38,100  Level Washington Center
Sun 07:44:15 PM 36.3858 -77.1531 199° South 473 544 38,100  Level Washington Center
Sun 07:45:16 PM 36.2706 -77.1994 198° South 480 552 38,100  Level Washington Center
Sun 07:46:17 PM 36.1383 -77.2536 198° South 480 552 38,100  Level Washington Center
Sun 07:47:17 PM 36.0125 -77.3022 197° South 474 545 38,100  Level Washington Center
Sun 07:48:15 PM 35.8822 -77.3558 198° South 481 554 38,100  Level Washington Center
Sun 07:49:15 PM 35.7522 -77.4067 198° South 487 560 38,100  Level Washington Center
Sun 07:50:16 PM 35.6242 -77.4575 198° South 487 560 38,100  Level Washington Center
Sun 07:51:18 PM 35.4961 -77.5106 199° South 487 560 38,100  Level Washington Center
Sun 07:52:15 PM 35.3678 -77.5661 199° South 487 560 38,100  Level Washington Center
Sun 07:53:15 PM 35.2597 -77.6703 218° Southwest 485 558 38,100  Level Washington Center
Sun 07:54:16 PM 35.1575 -77.7744 220° Southwest 490 564 38,100  Level Washington Center
Sun 07:55:16 PM 35.0556 -77.8831 221° Southwest 490 564 38,100  Level Washington Center
Sun 07:56:17 PM 34.9533 -77.9867 220° Southwest 490 564 38,100  Level Washington Center
Sun 07:57:18 PM 34.8508 -78.0925 220° Southwest 490 564 38,100 -50 Level Washington Center
Sun 07:58:16 PM 34.7525 -78.2033 223° Southwest 490 564 38,000 -51 Descending Washington Center
Sun 07:59:16 PM 34.6628 -78.2964 220° Southwest 485 558 38,000  Level Washington Center
Sun 08:00:08 PM 34.5614 -78.3950 219° Southwest 489 563 38,000  Level Jacksonville Center
Sun 08:01:09 PM 34.4608 -78.4983 220° Southwest 483 556 38,000  Level Jacksonville Center
Sun 08:02:09 PM 34.3581 -78.5992 219° Southwest 483 556 38,000  Level Jacksonville Center
Sun 08:03:09 PM 34.2572 -78.7022 220° Southwest 483 556 38,000  Level Jacksonville Center
Sun 08:04:09 PM 34.1514 -78.7900 214° Southwest 483 556 38,000  Level Jacksonville Center
Sun 08:05:09 PM 34.0264 -78.8536 203° Southwest 483 556 38,000 50 Level Jacksonville Center
Sun 08:06:09 PM 33.9031 -78.9167 203° Southwest 478 550 38,100  Climbing Jacksonville Center
Sun 08:07:08 PM 33.7819 -78.9747 202° Southwest 478 550 38,000 -50 Descending Jacksonville Center
Sun 08:08:09 PM 33.6586 -79.0350 202° Southwest 478 550 38,000  Level Jacksonville Center
Sun 08:09:09 PM 33.5353 -79.0978 203° Southwest 478 550 38,000  Level Jacksonville Center
Sun 08:10:09 PM 33.4261 -79.1472 201° Southwest 478 550 38,000  Level Jacksonville Center
Sun 08:11:09 PM 33.3028 -79.2094 203° Southwest 478 550 38,000  Level Jacksonville Center
Sun 08:12:09 PM 33.1814 -79.2717 203° Southwest 478 550 38,000  Level Jacksonville Center
Sun 08:13:08 PM 33.0578 -79.3336 203° Southwest 478 550 38,000  Level Jacksonville Center
Sun 08:14:09 PM 32.9344 -79.3931 202° Southwest 478 550 38,000  Level Jacksonville Center
Sun 08:15:09 PM 32.8128 -79.4544 203° Southwest 478 550 38,000  Level Jacksonville Center
Sun 08:16:09 PM 32.6914 -79.5158 203° Southwest 478 550 38,000  Level Jacksonville Center
Sun 08:17:08 PM 32.5697 -79.5747 202° Southwest 478 550 38,000  Level Jacksonville Center
Sun 08:18:08 PM 32.4522 -79.6331 203° Southwest 471 542 38,000  Level Jacksonville Center
Sun 08:19:09 PM 32.3306 -79.6892 201° Southwest 471 542 38,000  Level Jacksonville Center
Sun 08:20:09 PM 32.2111 -79.7497 203° Southwest 471 542 38,000  Level Jacksonville Center
Sun 08:21:09 PM 32.0894 -79.8078 202° Southwest 477 549 38,000  Level Jacksonville Center
Sun 08:22:08 PM 31.9697 -79.8658 202° Southwest 472 543 38,000  Level Jacksonville Center
Sun 08:23:09 PM 31.8433 -79.9067 195° South 472 543 38,000  Level Jacksonville Center
Sun 08:24:09 PM 31.7147 -79.9472 195° South 472 543 38,000  Level Jacksonville Center
Sun 08:25:09 PM 31.5883 -79.9831 194° South 472 543 38,000  Level Jacksonville Center
Sun 08:26:09 PM 31.4619 -80.0258 196° South 472 543 38,000  Level Jacksonville Center
Sun 08:27:09 PM 31.3356 -80.0736 198° South 472 543 38,000 -400 Level Jacksonville Center
Sun 08:28:09 PM 31.2114 -80.1283 201° Southwest 477 549 37,200 -850 Descending Jacksonville Center
Sun 08:29:09 PM 31.0831 -80.1781 198° South 482 555 36,300 -950 Descending Jacksonville Center
Sun 08:30:09 PM 30.9694 -80.2372 204° Southwest 477 549 35,300 -950 Descending Jacksonville Center
Sun 08:31:09 PM 30.8475 -80.2914 201° Southwest 472 543 34,400 -650 Descending Jacksonville Center
Sun 08:32:09 PM 30.7233 -80.3456 201° Southwest 472 543 34,000 -200 Descending Jacksonville Center
Sun 08:33:09 PM 30.6053 -80.3994 201° Southwest 466 536 34,000  Level Jacksonville Center
Sun 08:34:09 PM 30.4811 -80.4508 200° South 466 536 34,000  Level Jacksonville Center
Sun 08:35:09 PM 30.3633 -80.5067 202° Southwest 466 536 34,000  Level Jacksonville Center
Sun 08:36:09 PM 30.2408 -80.5581 200° South 471 542 34,000  Level Jacksonville Center
Sun 08:37:08 PM 30.1167 -80.6139 201° Southwest 471 542 34,000 -50 Level Jacksonville Center
Sun 08:38:09 PM 29.9944 -80.6669 201° Southwest 471 542 33,900 -1,884 Descending Jacksonville Center
Sun 08:39:09 PM 29.8619 -80.7250 201° Southwest 471 542 30,200 -3,350 Descending Jacksonville Center
Sun 08:40:09 PM 29.7397 -80.7806 202° Southwest 471 542 27,200 -2,950 Descending Jacksonville Center
Sun 08:41:09 PM 29.6214 -80.8308 200° South 466 536 24,300 -2,750 Descending Jacksonville Center
Sun 08:42:09 PM 29.5056 -80.8858 202° Southwest 459 528 21,700 -2,550 Descending Jacksonville Center
Sun 08:43:09 PM 29.4017 -80.9236 198° South 435 501 19,200 -2,400 Descending Jacksonville Center
Sun 08:44:09 PM 29.2958 -80.9711 201° Southwest 415 478 16,900 -2,400 Descending Jacksonville Center
Sun 08:45:09 PM 29.1942 -81.0133 200° South 408 470 14,400 -2,250 Descending Jacksonville Center
Sun 08:46:09 PM 29.0947 -81.0558 200° South 397 457 12,400 -1,261 Descending Jacksonville Center
Sun 08:47:08 PM 29.0094 -81.0858 197° South 374 430 11,900 -900 Descending Jacksonville Center
Sun 08:48:09 PM 28.9283 -81.1014 190° South 325 374 10,600 -1,587 Descending Jacksonville Center
Sun 08:49:09 PM 28.8581 -81.1383 205° Southwest 302 348 8,700 -1,850 Descending Jacksonville Center
Sun 08:50:09 PM 28.7853 -81.1775 205° Southwest 291 335 6,900 -1,700 Descending Jacksonville Center
Sun 08:51:09 PM 28.7169 -81.2142 205° Southwest 286 329 5,300 -1,500 Descending Jacksonville Center
Sun 08:52:09 PM 28.6506 -81.2483 204° Southwest 275 316 3,900 -1,118 Descending Jacksonville Center
Sun 08:52:51 PM 28.6000 -81.2667 198° South 244 281 3,400 -824 Descending Orlando TRACON
Sun 08:53:51 PM 28.5500 -81.3000 210° Southwest 195 224 2,500 -952 Descending Orlando TRACON
Sun 08:54:57 PM 28.5000 -81.3000 180° South 155 178 1,400 -857 Descending Orlando TRACON
Sun 08:55:57 PM 28.4667 -81.3000 180° South 137 158 700 -700 Descending Orlando TRACON
Sun 08:57:00 PM 28.4294 -81.3090 163° South  Level Estimated
Sun 09:04:00 PM 28.4294 -81.3090 336° Northwest  Level Estimated
Sun 09:05:00 PM 28.4294 -81.3090 336° Northwest  Level Estimated
Sun 09:06:00 PM 28.4294 -81.3090 336° Northwest  Level Estimated
Sun 09:07:00 PM 28.4294 -81.3090 336° Northwest  Level Estimated

Login

Don't have an account? Register now (free) for customized features, flight alerts, and more!